Terminal Aerodrome Forecast
Issued by NWS Shreveport, LA

Home | Current Version | Previous Version | Text Only | Print | Product List | Glossary On
Versions: 1 2 3 4 5 6 7 8 9 10 11 12 13 14 15 16 17
000
FTUS44 KSHV 222300 RRA
TAFTXK
TAF
KTXK 222347Z 2300/2324 VRB04KT P6SM FEW040 SCT180 OVC250
     FM230600 32004KT P6SM BKN100
     FM231000 36004KT P6SM VCSH OVC080
      TEMPO 2310/2312 5SM -RA BR OVC045
     FM231200 01006KT 4SM -SHRA BR OVC035
     FM231500 01008KT 4SM -SHRA BR BKN020
     FM231800 01009KT 4SM -SHRA BR OVC014=

USA.gov is the U.S. government's official web portal to all federal, state and local government web resources and services.